createdAt,value
2023-10-26T00:01:20.627Z,70.31
2023-10-26T00:03:49.021Z,70.24
2023-10-26T00:06:17.424Z,70.16
2023-10-26T00:08:45.635Z,69.71
2023-10-26T00:11:13.749Z,69.94
2023-10-26T00:13:41.880Z,70.13
2023-10-26T00:16:10.203Z,71.21
2023-10-26T00:18:38.193Z,71.55
2023-10-26T00:21:06.398Z,71.32
2023-10-26T00:23:34.589Z,70.78
2023-10-26T00:26:02.608Z,70.04
2023-10-26T00:28:30.617Z,71.60
2023-10-26T00:30:59.094Z,71.45
2023-10-26T00:33:27.289Z,71.05
2023-10-26T00:35:55.456Z,70.70
2023-10-26T00:38:23.446Z,70.76
2023-10-26T00:40:51.523Z,70.39
2023-10-26T00:43:21.392Z,70.24
2023-10-26T00:45:52.611Z,70.11
2023-10-26T00:48:21.352Z,70.01
2023-10-26T00:50:49.802Z,69.94
2023-10-26T00:53:19.929Z,69.37
2023-10-26T00:55:52.552Z,69.72
2023-10-26T00:58:21.716Z,72.38
2023-10-26T01:00:49.819Z,73.70
2023-10-26T01:03:17.914Z,72.74
2023-10-26T01:05:47.475Z,73.86
2023-10-26T01:08:15.923Z,73.96
2023-10-26T01:10:44.023Z,73.81
2023-10-26T01:13:12.171Z,73.34
2023-10-26T01:15:41.409Z,72.29
2023-10-26T01:18:09.587Z,72.05
2023-10-26T01:20:41.305Z,73.01
2023-10-26T01:23:09.570Z,73.28
2023-10-26T01:25:38.048Z,73.58
2023-10-26T01:28:08.249Z,73.57
2023-10-26T01:30:36.218Z,73.62
2023-10-26T01:33:04.348Z,73.15
2023-10-26T01:35:47.107Z,72.74
2023-10-26T01:38:15.296Z,71.94
2023-10-26T01:40:43.368Z,72.16
2023-10-26T01:43:11.548Z,74.92
2023-10-26T01:45:39.747Z,75.77
2023-10-26T01:48:07.835Z,76.14
2023-10-26T01:50:36.348Z,75.53
2023-10-26T01:53:04.419Z,75.68
2023-10-26T01:55:32.690Z,75.30
2023-10-26T01:58:00.756Z,75.35
2023-10-26T02:00:28.999Z,76.21
2023-10-26T02:02:57.409Z,74.96
2023-10-26T02:05:26.682Z,74.77
2023-10-26T02:07:54.930Z,74.11
2023-10-26T02:10:25.213Z,74.21
2023-10-26T02:12:53.279Z,73.65
2023-10-26T02:15:21.563Z,73.15
2023-10-26T02:17:50.209Z,72.97
2023-10-26T02:20:18.350Z,72.81
2023-10-26T02:22:48.083Z,72.06
2023-10-26T02:25:16.661Z,72.00
2023-10-26T02:27:44.903Z,72.25
2023-10-26T02:30:13.415Z,74.29
2023-10-26T02:32:42.009Z,74.45
2023-10-26T02:35:10.499Z,73.67
2023-10-26T02:37:41.987Z,73.37
2023-10-26T02:40:10.793Z,73.18
2023-10-26T02:42:40.340Z,74.15
2023-10-26T02:45:09.376Z,74.44
2023-10-26T02:47:39.143Z,73.35
2023-10-26T02:50:07.788Z,72.92
2023-10-26T02:52:36.984Z,72.69
2023-10-26T02:55:06.697Z,73.01
2023-10-26T02:57:34.759Z,73.48
2023-10-26T03:00:03.843Z,72.71
2023-10-26T03:02:32.100Z,72.20
2023-10-26T03:05:00.251Z,71.68
2023-10-26T03:07:28.444Z,71.41
2023-10-26T03:09:57.016Z,71.04
2023-10-26T03:12:25.133Z,71.55
2023-10-26T03:14:53.938Z,72.46
2023-10-26T03:17:22.031Z,72.02
2023-10-26T03:19:50.057Z,72.02
2023-10-26T03:22:18.032Z,71.78
2023-10-26T03:24:46.226Z,72.86
2023-10-26T03:27:14.460Z,72.91
2023-10-26T03:29:43.774Z,74.88
2023-10-26T03:32:12.623Z,76.74
2023-10-26T03:34:40.724Z,77.75
2023-10-26T03:37:09.977Z,79.07
2023-10-26T03:39:38.195Z,78.40
2023-10-26T03:42:06.524Z,80.65
2023-10-26T03:44:34.542Z,83.47
2023-10-26T03:47:02.922Z,82.82
2023-10-26T03:49:30.994Z,84.09
2023-10-26T03:51:59.014Z,84.46
2023-10-26T03:54:27.178Z,83.68
2023-10-26T03:56:55.249Z,83.52
2023-10-26T03:59:23.395Z,84.39
2023-10-26T04:01:51.491Z,84.32
2023-10-26T04:04:19.659Z,84.58
2023-10-26T04:06:47.656Z,83.69
2023-10-26T04:09:15.917Z,80.34
2023-10-26T04:11:45.896Z,78.84
2023-10-26T04:14:13.959Z,80.34
2023-10-26T04:16:42.045Z,82.43
2023-10-26T04:19:10.137Z,84.16
2023-10-26T04:21:38.186Z,82.26
2023-10-26T04:24:06.262Z,80.27
2023-10-26T04:26:34.453Z,80.94
2023-10-26T04:29:02.520Z,81.06
2023-10-26T04:31:30.526Z,81.45
2023-10-26T04:33:59.607Z,78.96
2023-10-26T04:36:27.842Z,79.77
2023-10-26T04:38:55.981Z,81.02
2023-10-26T04:41:24.163Z,82.34
2023-10-26T04:43:52.291Z,82.36
2023-10-26T04:46:20.427Z,85.98
2023-10-26T04:48:48.836Z,86.55
2023-10-26T04:51:17.072Z,85.68
2023-10-26T04:53:45.221Z,85.47
2023-10-26T04:56:13.300Z,85.31
2023-10-26T04:58:41.883Z,86.40
2023-10-26T05:01:10.237Z,87.24
2023-10-26T05:03:39.459Z,88.08
2023-10-26T05:06:08.202Z,88.69
2023-10-26T05:08:36.441Z,90.82
2023-10-26T05:11:04.627Z,88.81
2023-10-26T05:13:32.972Z,88.71
2023-10-26T05:16:01.334Z,87.56
2023-10-26T05:18:29.699Z,86.59
2023-10-26T05:20:57.848Z,86.59
2023-10-26T05:23:25.913Z,86.35
2023-10-26T05:25:54.045Z,86.18
2023-10-26T05:28:22.189Z,85.32
2023-10-26T05:30:50.229Z,84.66
2023-10-26T05:33:18.474Z,84.44
2023-10-26T05:35:46.559Z,84.42
2023-10-26T05:38:18.056Z,83.83
2023-10-26T05:40:50.991Z,82.78
2023-10-26T05:43:19.113Z,82.32
2023-10-26T05:45:47.184Z,83.13
2023-10-26T05:48:15.358Z,83.17
2023-10-26T05:50:44.202Z,81.65
2023-10-26T05:53:12.186Z,81.33
2023-10-26T05:55:43.207Z,80.96
2023-10-26T05:58:11.393Z,81.07
2023-10-26T06:00:40.002Z,81.86
2023-10-26T06:03:08.659Z,83.05
2023-10-26T06:05:37.133Z,83.37
2023-10-26T06:08:05.476Z,84.43
2023-10-26T06:10:34.034Z,85.34
2023-10-26T06:13:03.908Z,85.80
2023-10-26T06:15:32.202Z,84.40
2023-10-26T06:18:00.618Z,84.31
2023-10-26T06:20:29.374Z,83.90
2023-10-26T06:22:57.765Z,83.63
2023-10-26T06:25:30.185Z,84.00
2023-10-26T06:27:58.327Z,83.30
2023-10-26T06:30:26.451Z,83.46
2023-10-26T06:32:54.557Z,83.07
2023-10-26T06:35:22.736Z,82.53
2023-10-26T06:37:50.850Z,81.65
2023-10-26T06:40:18.842Z,81.81
2023-10-26T06:42:46.973Z,81.23
2023-10-26T06:45:15.102Z,81.67
2023-10-26T06:47:43.873Z,81.81
2023-10-26T06:50:12.064Z,82.05
2023-10-26T06:52:40.274Z,82.42
2023-10-26T06:55:15.528Z,82.81
2023-10-26T06:57:48.090Z,82.53
2023-10-26T07:00:16.865Z,82.76
2023-10-26T07:02:45.697Z,83.48
2023-10-26T07:05:14.268Z,84.13
2023-10-26T07:07:42.254Z,84.17
2023-10-26T07:10:16.435Z,84.53
2023-10-26T07:12:44.962Z,84.93
2023-10-26T07:15:13.487Z,85.45
2023-10-26T07:17:41.616Z,85.42
2023-10-26T07:20:10.362Z,84.12
2023-10-26T07:22:39.865Z,83.37
2023-10-26T07:25:08.315Z,82.56
2023-10-26T07:27:36.567Z,83.24
2023-10-26T07:30:05.057Z,83.13
2023-10-26T07:32:33.373Z,82.83
2023-10-26T07:35:02.894Z,82.28
2023-10-26T07:37:31.154Z,82.42
2023-10-26T07:42:47.332Z,82.76
2023-10-26T07:45:15.520Z,82.38
2023-10-26T07:47:43.933Z,81.63
2023-10-26T07:50:12.830Z,81.74
2023-10-26T07:52:41.012Z,81.94
2023-10-26T07:55:11.750Z,81.61
2023-10-26T07:57:40.126Z,82.14
2023-10-26T08:00:09.451Z,82.48
2023-10-26T08:02:41.822Z,82.50
2023-10-26T08:05:11.020Z,81.90
2023-10-26T08:07:39.609Z,82.01
2023-10-26T08:10:08.811Z,81.15
2023-10-26T08:12:55.865Z,80.16
2023-10-26T08:16:30.179Z,78.83
2023-10-26T08:18:13.524Z,77.73
2023-10-26T08:20:41.962Z,76.02
2023-10-26T08:23:10.086Z,75.42
2023-10-26T08:25:38.355Z,74.88
2023-10-26T08:28:06.644Z,73.66
2023-10-26T08:30:34.654Z,73.19
2023-10-26T08:33:05.724Z,72.15
2023-10-26T08:35:34.238Z,71.78
2023-10-26T08:38:02.258Z,72.18
2023-10-26T08:40:31.349Z,71.48
2023-10-26T08:43:01.149Z,71.41
2023-10-26T08:45:30.911Z,70.96
2023-10-26T08:47:59.083Z,71.07
2023-10-26T08:50:27.340Z,71.37
2023-10-26T08:52:57.649Z,71.53
2023-10-26T08:55:26.541Z,72.20
2023-10-26T08:58:01.910Z,72.37
2023-10-26T09:00:30.815Z,72.93
2023-10-26T09:02:59.694Z,73.52
2023-10-26T09:05:28.226Z,73.86
2023-10-26T09:07:56.471Z,74.26
2023-10-26T09:10:31.604Z,74.37
2023-10-26T09:13:04.464Z,73.89
2023-10-26T09:15:46.362Z,73.65
2023-10-26T09:18:16.648Z,73.49
2023-10-26T09:21:01.452Z,73.58
2023-10-26T09:23:30.209Z,73.98
2023-10-26T09:25:59.270Z,73.69
2023-10-26T09:28:27.479Z,73.86
2023-10-26T09:31:03.459Z,73.85
2023-10-26T09:33:32.653Z,73.89
2023-10-26T09:36:11.722Z,74.26
2023-10-26T09:38:40.556Z,73.91
2023-10-26T09:41:20.132Z,73.47
2023-10-26T09:43:49.347Z,73.33
2023-10-26T09:46:21.580Z,73.61
2023-10-26T09:48:50.263Z,73.74
2023-10-26T09:51:20.138Z,73.53
2023-10-26T09:53:49.667Z,73.07
2023-10-26T09:56:24.224Z,73.31
2023-10-26T09:58:54.051Z,73.24
2023-10-26T10:01:41.044Z,72.99
2023-10-26T10:04:12.761Z,72.23
2023-10-26T10:06:44.992Z,71.86
2023-10-26T10:09:13.754Z,71.61
2023-10-26T10:11:42.013Z,70.99
2023-10-26T10:14:10.197Z,70.75
2023-10-26T10:16:50.456Z,70.19
2023-10-26T10:19:27.269Z,70.03
2023-10-26T10:21:55.713Z,69.41
2023-10-26T10:24:46.508Z,69.10
2023-10-26T10:27:19.583Z,68.58
2023-10-26T10:29:48.564Z,68.79
2023-10-26T10:32:35.790Z,68.17
2023-10-26T10:35:06.351Z,67.95
2023-10-26T10:37:34.422Z,67.17
2023-10-26T10:40:13.516Z,66.75
2023-10-26T10:42:46.620Z,66.92
2023-10-26T10:45:14.758Z,67.34
2023-10-26T10:47:43.756Z,67.27
2023-10-26T10:50:20.635Z,67.80
2023-10-26T10:52:49.528Z,67.44
2023-10-26T10:55:25.134Z,67.80
2023-10-26T10:58:03.420Z,67.92
2023-10-26T11:00:44.129Z,68.41
2023-10-26T11:03:38.605Z,68.65
2023-10-26T11:06:06.959Z,68.41
2023-10-26T11:08:39.687Z,68.34
2023-10-26T11:11:07.778Z,68.21
2023-10-26T11:13:35.953Z,67.83
2023-10-26T11:16:16.130Z,68.08
2023-10-26T11:18:44.283Z,68.06
2023-10-26T11:21:18.902Z,68.14
2023-10-26T11:23:51.798Z,68.28
2023-10-26T11:26:19.794Z,68.52
2023-10-26T11:28:48.170Z,69.11
2023-10-26T11:31:17.156Z,68.86
2023-10-26T11:33:45.808Z,68.54
2023-10-26T11:36:14.469Z,68.81
2023-10-26T11:38:52.502Z,68.67
2023-10-26T11:41:24.080Z,68.36
2023-10-26T11:43:52.432Z,68.10
2023-10-26T11:46:36.700Z,67.70
2023-10-26T11:49:06.444Z,66.54
2023-10-26T11:51:37.130Z,66.69
2023-10-26T11:54:13.081Z,66.66
2023-10-26T11:56:41.683Z,66.31
2023-10-26T11:59:09.869Z,66.76
2023-10-26T12:01:37.999Z,66.63
2023-10-26T12:04:11.375Z,65.70
2023-10-26T12:06:39.677Z,65.84
2023-10-26T12:09:07.806Z,64.90
2023-10-26T12:11:36.158Z,64.92
2023-10-26T12:14:04.193Z,64.91
2023-10-26T12:16:32.277Z,64.84
2023-10-26T12:19:00.606Z,64.99
2023-10-26T12:21:28.994Z,64.54
2023-10-26T12:23:57.791Z,64.05
2023-10-26T12:26:25.999Z,64.15
2023-10-26T12:28:54.205Z,64.88
2023-10-26T12:31:22.632Z,65.44
2023-10-26T12:33:51.654Z,65.18
2023-10-26T12:36:20.470Z,65.52
2023-10-26T12:38:48.658Z,65.38
2023-10-26T12:41:16.811Z,65.41
2023-10-26T12:43:44.791Z,65.21
2023-10-26T12:46:13.670Z,65.10
2023-10-26T12:48:41.812Z,65.29
2023-10-26T12:51:09.813Z,65.30
2023-10-26T12:53:37.943Z,65.18
2023-10-26T12:56:07.270Z,64.27
2023-10-26T12:58:35.249Z,64.53
2023-10-26T13:01:03.712Z,63.90
2023-10-26T13:03:31.958Z,63.94
2023-10-26T13:06:00.199Z,63.41
2023-10-26T13:08:29.131Z,63.33
2023-10-26T13:10:57.301Z,63.48
2023-10-26T13:13:25.375Z,62.93
2023-10-26T13:15:53.930Z,62.54
2023-10-26T13:18:22.714Z,63.08
2023-10-26T13:20:51.551Z,63.77
2023-10-26T13:23:19.659Z,64.02
2023-10-26T13:25:48.082Z,63.93
2023-10-26T13:28:16.356Z,63.88
2023-10-26T13:30:44.756Z,62.06
2023-10-26T13:33:13.980Z,62.34
2023-10-26T13:35:42.354Z,61.35
2023-10-26T13:38:16.424Z,62.11
2023-10-26T13:40:45.204Z,63.06
2023-10-26T13:43:16.878Z,62.95
2023-10-26T13:45:45.165Z,63.24
2023-10-26T13:48:14.881Z,63.83
2023-10-26T13:50:44.760Z,63.85
2023-10-26T13:53:15.285Z,64.22
2023-10-26T13:55:43.396Z,64.89
2023-10-26T13:58:11.507Z,65.16
2023-10-26T14:00:40.178Z,65.04
2023-10-26T14:03:08.338Z,65.60
2023-10-26T14:05:38.694Z,65.34
2023-10-26T14:08:06.893Z,65.39
2023-10-26T14:10:34.949Z,65.67
2023-10-26T14:13:05.328Z,66.17
2023-10-26T14:15:35.561Z,66.12
2023-10-26T14:18:03.705Z,65.84
2023-10-26T14:20:31.669Z,66.74
2023-10-26T14:23:01.787Z,69.68
2023-10-26T14:25:31.302Z,69.99
2023-10-26T14:27:59.311Z,69.45
2023-10-26T14:30:27.542Z,71.47
2023-10-26T14:32:55.642Z,73.55
2023-10-26T14:35:23.915Z,70.18
2023-10-26T14:37:52.021Z,70.43
2023-10-26T14:40:20.351Z,71.64
2023-10-26T14:42:48.704Z,71.98
2023-10-26T14:45:17.000Z,71.70
2023-10-26T14:47:45.168Z,72.66
2023-10-26T14:50:16.537Z,72.97
2023-10-26T14:52:44.833Z,72.28
2023-10-26T14:55:17.248Z,76.59
2023-10-26T14:57:45.463Z,77.95
2023-10-26T15:00:13.567Z,75.26
2023-10-26T15:02:41.668Z,75.36
2023-10-26T15:05:11.225Z,76.24
2023-10-26T15:07:39.221Z,77.23
2023-10-26T15:10:22.325Z,77.01
2023-10-26T15:12:54.965Z,74.51
2023-10-26T15:15:23.803Z,76.43
2023-10-26T15:17:52.692Z,75.54
2023-10-26T15:20:20.912Z,74.66
2023-10-26T15:22:49.175Z,75.90
2023-10-26T15:25:17.922Z,74.85
2023-10-26T15:27:46.039Z,75.50
2023-10-26T15:30:14.254Z,75.62
2023-10-26T15:32:42.435Z,77.46
2023-10-26T15:35:10.570Z,77.88
2023-10-26T15:37:38.893Z,77.49
2023-10-26T15:40:07.448Z,77.01
2023-10-26T15:42:35.578Z,76.19
2023-10-26T15:45:05.106Z,74.87
2023-10-26T15:47:33.568Z,75.64
2023-10-26T15:50:03.358Z,75.60
2023-10-26T15:52:32.436Z,75.96
2023-10-26T15:55:00.572Z,76.07
2023-10-26T15:57:30.575Z,77.48
2023-10-26T15:59:58.802Z,76.32
2023-10-26T16:02:26.911Z,75.71
2023-10-26T16:04:55.122Z,76.68
2023-10-26T16:07:23.060Z,76.49
2023-10-26T16:09:52.146Z,75.01
2023-10-26T16:12:23.435Z,76.89
2023-10-26T16:14:51.590Z,76.59
2023-10-26T16:17:19.700Z,76.07
2023-10-26T16:19:47.936Z,75.76
2023-10-26T16:22:17.353Z,77.46
2023-10-26T16:24:46.589Z,78.07
2023-10-26T16:27:14.835Z,78.10
2023-10-26T16:29:45.101Z,77.60
2023-10-26T16:32:15.041Z,77.44
2023-10-26T16:34:43.866Z,77.96
2023-10-26T16:37:12.091Z,78.21
2023-10-26T16:39:40.150Z,77.96
2023-10-26T16:42:10.999Z,78.09
2023-10-26T16:44:39.408Z,78.04
2023-10-26T16:47:07.710Z,77.20
2023-10-26T16:49:35.869Z,76.55
2023-10-26T16:52:04.207Z,75.89
2023-10-26T16:54:32.398Z,76.32
2023-10-26T16:57:00.656Z,76.77
2023-10-26T16:59:28.918Z,76.69
2023-10-26T17:01:57.144Z,76.44
2023-10-26T17:04:25.271Z,75.55
2023-10-26T17:06:55.312Z,75.70
2023-10-26T17:09:25.262Z,76.03
2023-10-26T17:11:53.367Z,76.04
2023-10-26T17:14:21.508Z,76.02
2023-10-26T17:16:49.550Z,75.54
2023-10-26T17:19:17.602Z,75.76
2023-10-26T17:21:45.581Z,75.58
2023-10-26T17:24:16.246Z,74.84
2023-10-26T17:26:44.673Z,74.80
2023-10-26T17:29:13.231Z,74.58
2023-10-26T17:31:43.065Z,73.76
2023-10-26T17:34:11.071Z,73.72
2023-10-26T17:36:39.051Z,73.77
2023-10-26T17:39:07.136Z,73.78
2023-10-26T17:41:35.450Z,74.52
2023-10-26T17:44:04.652Z,74.38
2023-10-26T17:46:32.875Z,75.09
2023-10-26T17:49:03.990Z,75.98
2023-10-26T17:51:34.068Z,76.24
2023-10-26T17:54:02.597Z,76.37
2023-10-26T17:56:37.311Z,76.38
2023-10-26T17:59:05.567Z,75.84
2023-10-26T18:01:37.958Z,75.91
2023-10-26T18:04:06.620Z,75.80
2023-10-26T18:06:36.357Z,75.38
2023-10-26T18:09:05.234Z,75.29
2023-10-26T18:11:33.419Z,75.29
2023-10-26T18:14:02.078Z,74.54
2023-10-26T18:16:32.987Z,74.29
2023-10-26T18:19:01.526Z,74.57
2023-10-26T18:21:30.326Z,75.14
2023-10-26T18:24:00.586Z,75.61
2023-10-26T18:26:28.784Z,75.40
2023-10-26T18:28:58.835Z,73.90
2023-10-26T18:31:27.678Z,74.25
2023-10-26T18:33:56.596Z,75.57
2023-10-26T18:36:29.733Z,76.27
2023-10-26T18:38:57.784Z,76.14
2023-10-26T18:41:26.843Z,75.58
2023-10-26T18:43:58.448Z,74.86
2023-10-26T18:46:27.023Z,75.46
2023-10-26T18:48:55.668Z,76.64
2023-10-26T18:51:24.621Z,76.81
2023-10-26T18:53:54.559Z,77.70
2023-10-26T18:56:23.859Z,77.41
2023-10-26T18:58:52.333Z,76.27
2023-10-26T19:01:21.643Z,76.35
2023-10-26T19:06:21.538Z,76.77
2023-10-26T19:08:51.187Z,76.64
2023-10-26T19:11:19.342Z,76.36
2023-10-26T19:13:48.534Z,75.61
2023-10-26T19:16:16.856Z,75.54
2023-10-26T19:18:45.027Z,75.15
2023-10-26T19:21:15.347Z,75.44
2023-10-26T19:23:43.372Z,75.28
2023-10-26T19:26:11.446Z,74.98
2023-10-26T19:28:41.482Z,74.28
2023-10-26T19:31:11.288Z,75.28
2023-10-26T19:33:42.794Z,75.88
2023-10-26T19:36:11.266Z,75.33
2023-10-26T19:38:41.491Z,74.95
2023-10-26T19:41:13.154Z,75.17
2023-10-26T19:43:41.574Z,76.79
2023-10-26T19:46:10.961Z,77.97
2023-10-26T19:48:39.173Z,78.12
2023-10-26T19:51:07.137Z,79.03
2023-10-26T19:53:36.700Z,79.32
2023-10-26T19:56:05.365Z,79.68
2023-10-26T19:58:34.963Z,78.89
2023-10-26T20:01:04.733Z,77.46
2023-10-26T20:03:32.967Z,76.91
2023-10-26T20:06:05.127Z,76.18
2023-10-26T20:08:33.218Z,77.71
2023-10-26T20:11:01.208Z,78.10
2023-10-26T20:13:29.567Z,78.03
2023-10-26T20:15:57.689Z,78.70
2023-10-26T20:18:25.768Z,77.46
2023-10-26T20:20:53.917Z,77.49
2023-10-26T20:23:21.900Z,78.46
2023-10-26T20:25:50.572Z,79.20
2023-10-26T20:28:19.983Z,79.05
2023-10-26T20:30:48.152Z,77.42
2023-10-26T20:33:20.336Z,78.46
2023-10-26T20:35:52.296Z,79.50
2023-10-26T20:38:20.877Z,79.40
2023-10-26T20:40:48.823Z,79.81
2023-10-26T20:43:16.948Z,78.80
2023-10-26T20:45:46.819Z,77.94
2023-10-26T20:48:14.774Z,78.13
2023-10-26T20:50:42.843Z,78.40
2023-10-26T20:53:10.856Z,79.05
2023-10-26T20:55:39.366Z,78.98
2023-10-26T20:58:07.419Z,79.15
2023-10-26T21:00:35.824Z,79.91
2023-10-26T21:03:03.939Z,80.18
2023-10-26T21:05:32.196Z,80.00
2023-10-26T21:08:00.265Z,80.06
2023-10-26T21:10:28.266Z,79.72
2023-10-26T21:12:56.520Z,78.90
2023-10-26T21:15:24.659Z,79.21
2023-10-26T21:17:52.661Z,79.50
2023-10-26T21:20:21.057Z,79.92
2023-10-26T21:22:49.043Z,79.17
2023-10-26T21:25:17.267Z,78.26
2023-10-26T21:27:45.384Z,79.14
2023-10-26T21:30:14.300Z,79.89
2023-10-26T21:32:42.460Z,78.78
2023-10-26T21:35:10.639Z,77.42
2023-10-26T21:37:38.626Z,77.40
2023-10-26T21:40:07.706Z,78.92
2023-10-26T21:42:35.918Z,78.43
2023-10-26T21:45:05.028Z,79.08
2023-10-26T21:47:33.285Z,80.01
2023-10-26T21:50:01.593Z,80.18
2023-10-26T21:52:29.682Z,80.23
2023-10-26T21:54:57.911Z,80.06
2023-10-26T21:57:25.901Z,79.51
2023-10-26T21:59:54.040Z,78.13
2023-10-26T22:02:22.332Z,78.03
2023-10-26T22:04:50.428Z,80.31
2023-10-26T22:07:21.569Z,81.33
2023-10-26T22:09:55.356Z,80.91
2023-10-26T22:12:23.854Z,80.39
2023-10-26T22:14:51.881Z,79.21
2023-10-26T22:17:20.022Z,79.35
2023-10-26T22:19:51.648Z,79.49
2023-10-26T22:22:19.959Z,79.26
2023-10-26T22:24:48.327Z,79.99
2023-10-26T22:27:16.356Z,81.44
2023-10-26T22:29:44.539Z,81.32
2023-10-26T22:32:12.772Z,81.03
2023-10-26T22:34:40.873Z,81.03
2023-10-26T22:37:09.208Z,81.77
2023-10-26T22:39:37.433Z,81.81
2023-10-26T22:42:05.734Z,82.40
2023-10-26T22:44:33.712Z,81.07
2023-10-26T22:47:01.772Z,81.13
2023-10-26T22:49:29.748Z,80.73
2023-10-26T22:51:58.150Z,82.05
2023-10-26T22:54:26.179Z,80.38
2023-10-26T22:56:54.298Z,79.15
2023-10-26T22:59:23.101Z,81.06
2023-10-26T23:01:51.540Z,80.58
2023-10-26T23:04:19.945Z,79.23
2023-10-26T23:06:48.171Z,81.84
2023-10-26T23:09:17.197Z,81.80
2023-10-26T23:11:45.554Z,81.08
2023-10-26T23:14:14.035Z,80.75
2023-10-26T23:16:47.523Z,80.30
2023-10-26T23:19:18.771Z,80.83
2023-10-26T23:21:47.586Z,81.17
2023-10-26T23:24:19.102Z,80.12
2023-10-26T23:26:48.766Z,80.03
2023-10-26T23:29:16.831Z,80.56
2023-10-26T23:31:44.849Z,80.67
2023-10-26T23:34:12.979Z,80.91
2023-10-26T23:36:41.309Z,81.09
2023-10-26T23:39:09.685Z,81.04
2023-10-26T23:41:37.962Z,81.09
2023-10-26T23:44:06.288Z,80.62
2023-10-26T23:46:34.951Z,80.10
2023-10-26T23:49:03.150Z,79.29
2023-10-26T23:51:31.167Z,78.91
2023-10-26T23:53:59.288Z,78.75
2023-10-26T23:56:27.424Z,79.41
2023-10-26T23:58:56.467Z,79.20
